Time;durP1;ratioP1;P1;durP2;ratioP2;P2;SDS_P1;SDS_P2;PMS_P1;PMS_P2;Temp;Humidity;BMP_temperature;BMP_pressure;BME280_temperature;BME280_humidity;BME280_pressure;Samples;Min_cycle;Max_cycle;Signal;HPM_P1;HPM_P2
2021/01/06 00:00:34;;;;;;;;;;;;;;;-2.57;99.13;92264.06;1063787;55;20157;-82
2021/01/06 00:01:37;;;;;;;;;;;;;;;-2.59;99.27;92257.69;1061604;56;20158;-83
2021/01/06 00:02:39;;;;;;;;;;;;;;;-2.60;99.75;92266.63;1064208;55;20201;-83
2021/01/06 00:03:40;;;;;;;;;;;;;;;-2.52;99.51;92268.25;1064035;55;20208;-83
2021/01/06 00:04:40;;;;;;;;;;;;;;;-2.49;98.98;92269.41;1061692;56;20721;-85
2021/01/06 00:05:41;;;;;;;;;;;;;;;-2.49;99.52;92262.31;1061647;56;20161;-84
2021/01/06 00:06:42;;;;;;;;;;;;;;;-2.50;99.55;92266.03;1063794;55;20153;-83
2021/01/06 00:07:43;;;;;;;;;;;;;;;-2.42;99.20;92265.00;1063777;55;20177;-84
2021/01/06 00:08:44;;;;;;;;;;;;;;;-2.30;98.60;92259.56;1063880;55;20621;-85
2021/01/06 00:09:44;;;;;;;;;;;;;;;-2.32;98.44;92261.03;1061651;56;21068;-82
2021/01/06 00:10:49;;;;;;;;;;;;;;;-2.38;97.98;92270.28;1063886;55;20154;-83
2021/01/06 00:11:50;;;;;;;;;;;;;;;-2.49;98.39;92262.31;1063455;55;20162;-84
2021/01/06 00:12:50;;;;;;;;;;;;;;;-2.55;99.17;92259.25;1063888;55;20150;-83
2021/01/06 00:13:51;;;;;;;;;;;;;;;-2.48;98.97;92263.06;1063552;55;20301;-84
2021/01/06 00:14:51;;;;;;;;;;;;;;;-2.40;99.34;92273.25;1063711;55;20169;-85
2021/01/06 00:15:52;;;;;;;;;;;;;;;-2.34;99.05;92268.47;1063752;55;20158;-83
2021/01/06 00:16:55;;;;;;;;;;;;;;;-2.43;98.36;92260.13;1061748;56;20279;-83
2021/01/06 00:17:55;;;;;;;;;;;;;;;-2.39;98.76;92263.56;1063731;55;20299;-85
2021/01/06 00:18:56;;;;;;;;;;;;;;;-2.42;98.56;92272.09;1065888;55;20759;-83
2021/01/06 00:19:56;;;;;;;;;;;;;;;-2.41;98.80;92268.41;1061403;56;20189;-85
2021/01/06 00:20:57;;;;;;;;;;;;;;;-2.44;98.83;92259.38;1061645;56;20263;-85
2021/01/06 00:21:57;;;;;;;;;;;;;;;-2.45;99.05;92264.97;1065924;55;20180;-84
2021/01/06 00:22:58;;;;;;;;;;;;;;;-2.43;98.60;92266.13;1068428;55;20180;-84
2021/01/06 00:24:01;;;;;;;;;;;;;;;-2.45;98.98;92270.22;1063722;55;20237;-85
2021/01/06 00:25:03;;;;;;;;;;;;;;;-2.41;98.75;92263.16;1063803;55;20258;-83
2021/01/06 00:26:03;;;;;;;;;;;;;;;-2.39;99.04;92276.62;1063735;55;20182;-85
2021/01/06 00:27:05;;;;;;;;;;;;;;;-2.21;98.63;92261.91;1061500;56;20193;-84
2021/01/06 00:28:05;;;;;;;;;;;;;;;-2.31;98.87;92262.53;1061574;55;20162;-86
2021/01/06 00:29:12;;;;;;;;;;;;;;;-2.47;98.76;92273.16;1063821;55;20158;-84
2021/01/06 00:30:23;;;;;;;;;;;;;;;-2.51;99.68;92267.13;1066154;55;20656;-84
2021/01/06 00:31:24;;;;;;;;;;;;;;;-2.48;100.00;92263.81;1067834;55;20205;-86
2021/01/06 00:32:24;;;;;;;;;;;;;;;-2.44;100.00;92261.25;1067978;55;20162;-84
2021/01/06 00:33:26;;;;;;;;;;;;;;;-2.36;99.95;92258.38;1065838;55;20173;-84
2021/01/06 00:34:28;;;;;;;;;;;;;;;-2.28;99.59;92259.97;1063807;55;20185;-84
2021/01/06 00:35:28;;;;;;;;;;;;;;;-2.34;99.17;92258.00;1063773;55;20626;-84
2021/01/06 00:36:29;;;;;;;;;;;;;;;-2.35;99.01;92266.97;1063864;55;20158;-85
2021/01/06 00:37:29;;;;;;;;;;;;;;;-2.44;99.39;92274.34;1061508;56;20154;-83
2021/01/06 00:38:31;;;;;;;;;;;;;;;-2.49;99.43;92272.03;1061705;55;20172;-84
2021/01/06 00:39:34;;;;;;;;;;;;;;;-2.30;99.89;92264.03;1061668;56;20221;-84
2021/01/06 00:40:35;;;;;;;;;;;;;;;-2.31;98.90;92273.00;1063643;55;20165;-83
2021/01/06 00:41:36;;;;;;;;;;;;;;;-2.26;98.87;92264.09;1063727;55;20311;-84
2021/01/06 00:42:37;;;;;;;;;;;;;;;-2.31;98.78;92263.28;1062029;55;22191;-83
2021/01/06 00:43:38;;;;;;;;;;;;;;;-2.30;98.74;92262.16;1065905;55;20565;-84
2021/01/06 00:44:38;;;;;;;;;;;;;;;-2.24;98.63;92259.22;1070211;55;20245;-83
2021/01/06 00:45:39;;;;;;;;;;;;;;;-2.20;98.37;92257.41;1067966;55;20153;-85
2021/01/06 00:46:39;;;;;;;;;;;;;;;-2.14;97.82;92261.25;1063642;55;20200;-83
2021/01/06 00:47:41;;;;;;;;;;;;;;;-2.26;97.86;92256.97;1063871;55;20676;-83
2021/01/06 00:48:42;;;;;;;;;;;;;;;-2.33;97.91;92257.66;1063563;55;20150;-84
2021/01/06 00:49:42;;;;;;;;;;;;;;;-2.33;98.53;92262.13;1065846;55;20634;-84
2021/01/06 00:50:44;;;;;;;;;;;;;;;-2.41;98.95;92263.91;1065956;55;20301;-84
2021/01/06 00:51:46;;;;;;;;;;;;;;;-2.35;99.07;92269.59;1067868;55;20150;-85
2021/01/06 00:52:46;;;;;;;;;;;;;;;-2.41;99.19;92263.16;1065667;55;20262;-84
2021/01/06 00:53:48;;;;;;;;;;;;;;;-2.51;99.86;92266.38;1063679;55;20221;-86
2021/01/06 00:54:49;;;;;;;;;;;;;;;-2.55;99.63;92266.31;1067998;55;20242;-85
2021/01/06 00:55:53;;;;;;;;;;;;;;;-2.55;100.00;92267.09;1061623;56;20154;-82
2021/01/06 00:56:53;;;;;;;;;;;;;;;-2.53;100.00;92264.87;1059518;56;20162;-82
2021/01/06 00:57:55;;;;;;;;;;;;;;;-2.54;100.00;92266.00;1059386;56;20237;-82
2021/01/06 00:58:55;;;;;;;;;;;;;;;-2.44;100.00;92261.25;1061578;56;20193;-84
2021/01/06 00:59:57;;;;;;;;;;;;;;;-2.44;100.00;92261.25;1061613;55;20711;-84
2021/01/06 01:00:58;;;;;;;;;;;;;;;-2.37;100.00;92272.56;1063762;56;20189;-84
2021/01/06 01:01:58;;;;;;;;;;;;;;;-2.42;100.00;92262.38;1063811;55;20162;-84
2021/01/06 01:03:00;;;;;;;;;;;;;;;-2.47;100.00;92259.34;1063813;56;20606;-87
2021/01/06 01:04:02;;;;;;;;;;;;;;;-2.50;100.00;92263.44;1061465;56;20150;-84
2021/01/06 01:05:03;;;;;;;;;;;;;;;-2.50;100.00;92262.66;1063753;55;20207;-83
2021/01/06 01:06:04;;;;;;;;;;;;;;;-2.53;100.00;92270.09;1063655;56;20157;-84
2021/01/06 01:07:04;;;;;;;;;;;;;;;-2.52;100.00;92268.25;1061522;56;20166;-84
2021/01/06 01:08:07;;;;;;;;;;;;;;;-2.46;100.00;92268.69;1059387;56;20661;-83
2021/01/06 01:09:07;;;;;;;;;;;;;;;-2.47;100.00;92270.56;1059474;56;20300;-84
2021/01/06 01:10:08;;;;;;;;;;;;;;;-2.50;100.00;92265.25;1061574;56;21085;-85
2021/01/06 01:11:09;;;;;;;;;;;;;;;-2.56;100.00;92276.03;1061546;56;20170;-83
2021/01/06 01:12:11;;;;;;;;;;;;;;;-2.58;100.00;92272.28;1061607;56;20595;-85
2021/01/06 01:13:17;;;;;;;;;;;;;;;-2.51;100.00;92274.97;1063616;55;20197;-84
2021/01/06 01:14:18;;;;;;;;;;;;;;;-2.42;100.00;92270.22;1063894;56;20316;-83
2021/01/06 01:15:20;;;;;;;;;;;;;;;-2.46;100.00;92276.53;1063626;56;20161;-84
2021/01/06 01:16:21;;;;;;;;;;;;;;;-2.44;100.00;92271.72;1061625;56;20174;-85
2021/01/06 01:17:21;;;;;;;;;;;;;;;-2.43;100.00;92265.37;1059365;56;20228;-83
2021/01/06 01:18:23;;;;;;;;;;;;;;;-2.41;100.00;92268.41;1061469;56;20165;-85
2021/01/06 01:19:23;;;;;;;;;;;;;;;-2.40;100.00;92267.28;1063590;56;20656;-85
2021/01/06 01:20:24;;;;;;;;;;;;;;;-2.34;100.00;92260.62;1061565;56;20170;-84
2021/01/06 01:21:31;;;;;;;;;;;;;;;-2.29;100.00;92271.53;1061426;56;20261;-83
2021/01/06 01:22:31;;;;;;;;;;;;;;;-2.39;100.00;92268.78;1063838;55;20153;-84
2021/01/06 01:23:33;;;;;;;;;;;;;;;-2.42;100.00;92267.63;1066285;55;20162;-83
2021/01/06 01:24:33;;;;;;;;;;;;;;;-2.45;100.00;92270.97;1061849;56;20177;-85
2021/01/06 01:25:34;;;;;;;;;;;;;;;-2.42;100.00;92272.09;1064092;55;20262;-84
2021/01/06 01:26:34;;;;;;;;;;;;;;;-2.46;100.00;92273.91;1068297;55;20169;-82
2021/01/06 01:27:35;;;;;;;;;;;;;;;-2.47;100.00;92270.56;1066579;55;20193;-83
2021/01/06 01:28:35;;;;;;;;;;;;;;;-2.43;100.00;92273.22;1063956;55;20165;-83
2021/01/06 01:29:36;;;;;;;;;;;;;;;-2.39;100.00;92277.38;1061812;56;20166;-85
2021/01/06 01:30:36;;;;;;;;;;;;;;;-2.44;100.00;92276.94;1063919;55;20170;-85
2021/01/06 01:31:37;;;;;;;;;;;;;;;-2.43;100.00;92281.06;1063612;55;20177;-84
2021/01/06 01:32:39;;;;;;;;;;;;;;;-2.48;100.00;92268.28;1061755;56;20174;-85
2021/01/06 01:33:42;;;;;;;;;;;;;;;-2.42;100.00;92275.47;1061771;56;20732;-84
2021/01/06 01:34:43;;;;;;;;;;;;;;;-2.45;100.00;92268.34;1061669;56;20174;-84
2021/01/06 01:35:43;;;;;;;;;;;;;;;-2.43;100.00;92273.97;1061619;56;20158;-83
2021/01/06 01:36:48;;;;;;;;;;;;;;;-2.42;100.00;92270.22;1061861;56;20161;-84
2021/01/06 01:37:49;;;;;;;;;;;;;;;-2.44;100.00;92275.09;1063931;55;20154;-85
2021/01/06 01:38:49;;;;;;;;;;;;;;;-2.32;100.00;92274.88;1064037;55;20170;-83
2021/01/06 01:39:50;;;;;;;;;;;;;;;-2.37;100.00;92266.56;1064093;55;20566;-83
2021/01/06 01:40:58;;;;;;;;;;;;;;;-2.35;100.00;92257.25;1064065;55;20599;-84
2021/01/06 01:41:58;;;;;;;;;;;;;;;-2.38;100.00;92275.53;1060153;56;20223;-84
2021/01/06 01:43:02;;;;;;;;;;;;;;;-2.42;100.00;92272.84;1061935;56;20169;-83
2021/01/06 01:44:03;;;;;;;;;;;;;;;-2.44;100.00;92279.56;1061839;56;20552;-83
2021/01/06 01:45:05;;;;;;;;;;;;;;;-2.42;100.00;92275.47;1059612;56;20264;-83
2021/01/06 01:46:07;;;;;;;;;;;;;;;-2.46;100.00;92281.75;1066346;55;20661;-85
2021/01/06 01:47:20;;;;;;;;;;;;;;;-2.48;100.00;92278.75;1064106;55;20228;-84
2021/01/06 01:48:26;;;;;;;;;;;;;;;-2.41;100.00;92284.09;1060861;56;20564;-88
2021/01/06 01:49:29;;;;;;;;;;;;;;;-2.40;100.00;92275.88;1059887;56;20702;-86
2021/01/06 01:50:30;;;;;;;;;;;;;;;-2.39;100.00;92281.88;1062063;56;20158;-83
2021/01/06 01:51:44;;;;;;;;;;;;;;;-2.38;100.00;92275.53;1062250;55;20150;-84
2021/01/06 01:52:48;;;;;;;;;;;;;;;-2.30;100.00;92279.75;1061952;56;20315;-84
2021/01/06 01:54:01;;;;;;;;;;;;;;;-2.30;100.00;92274.50;1059897;56;20181;-82
2021/01/06 01:55:04;;;;;;;;;;;;;;;-2.31;100.00;92278.22;1058661;56;20711;-85
2021/01/06 01:56:06;;;;;;;;;;;;;;;-2.32;100.00;92277.47;1061997;56;20634;-83
2021/01/06 01:57:17;;;;;;;;;;;;;;;-2.31;100.00;92267.78;1062156;56;20689;-84
2021/01/06 01:58:22;;;;;;;;;;;;;;;-2.25;100.00;92271.56;1062157;56;20201;-83
2021/01/06 01:59:28;;;;;;;;;;;;;;;-2.16;100.00;92274.66;1064097;55;20192;-84
2021/01/06 02:00:31;;;;;;;;;;;;;;;-2.16;100.00;92279.91;1061749;56;20162;-83
2021/01/06 02:01:32;;;;;;;;;;;;;;;-2.22;100.00;92270.88;1059801;56;20167;-82
2021/01/06 02:02:36;;;;;;;;;;;;;;;-2.22;100.00;92276.09;1064020;55;20162;-84
2021/01/06 02:03:57;;;;;;;;;;;;;;;-2.25;100.00;92276.81;1066491;55;20150;-84
2021/01/06 02:05:02;;;;;;;;;;;;;;;-2.33;100.00;92275.97;1066502;55;20169;-83
2021/01/06 02:06:15;;;;;;;;;;;;;;;-2.34;100.00;92273.69;1066165;55;20153;-85
2021/01/06 02:07:22;;;;;;;;;;;;;;;-2.29;100.00;92268.91;1061803;56;20147;-83
2021/01/06 02:08:25;;;;;;;;;;;;;;;-2.28;100.00;92269.69;1061898;56;20162;-83
2021/01/06 02:09:55;;;;;;;;;;;;;;;-2.26;100.00;92270.06;1062185;55;20154;-83
2021/01/06 02:10:58;;;;;;;;;;;;;;;-2.22;100.00;92265.63;1061365;56;20193;-84
2021/01/06 02:12:04;;;;;;;;;;;;;;;-2.21;100.00;92274.97;1064223;55;20170;-83
2021/01/06 02:13:14;;;;;;;;;;;;;;;-2.28;100.00;92269.69;1066399;55;20155;-84
2021/01/06 02:14:21;;;;;;;;;;;;;;;-2.24;100.00;92269.69;1061701;56;20236;-82
2021/01/06 02:15:34;;;;;;;;;;;;;;;-2.29;100.00;92281.25;1060395;56;20167;-83
2021/01/06 02:16:49;;;;;;;;;;;;;;;-2.33;100.00;92277.81;1064402;55;20180;-84
2021/01/06 02:17:49;;;;;;;;;;;;;;;-2.33;100.00;92277.81;1064112;55;20178;-84
2021/01/06 02:18:50;;;;;;;;;;;;;;;-2.35;100.00;92272.19;1061893;56;20175;-85
2021/01/06 02:19:50;;;;;;;;;;;;;;;-2.31;100.00;92267.78;1061855;55;20166;-83
2021/01/06 02:21:03;;;;;;;;;;;;;;;-2.32;100.00;92276.72;1061981;56;20170;-84
2021/01/06 02:22:04;;;;;;;;;;;;;;;-2.25;100.00;92271.56;1059998;56;20186;-84
2021/01/06 02:23:05;;;;;;;;;;;;;;;-2.23;100.00;92268.62;1059714;56;20253;-83
2021/01/06 02:24:07;;;;;;;;;;;;;;;-2.21;100.00;92271.63;1064001;55;20161;-85
2021/01/06 02:25:07;;;;;;;;;;;;;;;-2.14;100.00;92271.72;1061820;56;20166;-83
2021/01/06 02:26:09;;;;;;;;;;;;;;;-2.10;100.00;92268.03;1061922;56;21249;-83
2021/01/06 02:27:11;;;;;;;;;;;;;;;-2.14;100.00;92266.47;1059849;56;20587;-85
2021/01/06 02:28:11;;;;;;;;;;;;;;;-2.12;100.00;92267.59;1059738;56;20155;-83
2021/01/06 02:29:13;;;;;;;;;;;;;;;-2.16;100.00;92268.69;1061899;56;20200;-84
2021/01/06 02:30:14;;;;;;;;;;;;;;;-2.19;100.00;92261.56;1063997;55;20181;-85
2021/01/06 02:31:15;;;;;;;;;;;;;;;-2.20;100.00;92263.41;1063763;55;20201;-85
2021/01/06 02:32:16;;;;;;;;;;;;;;;-2.11;100.00;92266.53;1059467;56;20190;-84
2021/01/06 02:33:16;;;;;;;;;;;;;;;-2.01;100.00;92264.37;1061723;56;20185;-83
2021/01/06 02:34:17;;;;;;;;;;;;;;;-2.05;100.00;92265.09;1063828;55;20256;-83
2021/01/06 02:35:21;;;;;;;;;;;;;;;-2.01;100.00;92262.50;1061822;56;20201;-84
2021/01/06 02:36:22;;;;;;;;;;;;;;;-2.08;99.97;92257.19;1061780;56;20185;-84
2021/01/06 02:37:22;;;;;;;;;;;;;;;-2.06;99.93;92260.97;1059665;56;21202;-84
2021/01/06 02:38:23;;;;;;;;;;;;;;;-2.01;100.00;92262.50;1059700;56;20197;-83
2021/01/06 02:39:24;;;;;;;;;;;;;;;-2.03;100.00;92254.25;1063871;55;20184;-83
2021/01/06 02:40:25;;;;;;;;;;;;;;;-2.10;100.00;92262.03;1061654;56;20662;-86
2021/01/06 02:41:26;;;;;;;;;;;;;;;-2.07;100.00;92259.44;1061824;56;20190;-85
2021/01/06 02:42:26;;;;;;;;;;;;;;;-2.12;100.00;92259.00;1063924;55;20195;-84
2021/01/06 02:43:27;;;;;;;;;;;;;;;-2.07;100.00;92256.06;1061696;56;20706;-83
2021/01/06 02:44:28;;;;;;;;;;;;;;;-2.11;100.00;92258.66;1059831;56;20185;-83
2021/01/06 02:45:28;;;;;;;;;;;;;;;-2.07;100.00;92256.81;1061918;56;20697;-83
2021/01/06 02:46:29;;;;;;;;;;;;;;;-2.11;100.00;92261.28;1063940;55;20154;-85
2021/01/06 02:47:30;;;;;;;;;;;;;;;-2.09;100.00;92260.91;1061930;56;20170;-82
2021/01/06 02:48:31;;;;;;;;;;;;;;;-2.15;100.00;92257.09;1059698;56;20218;-83
2021/01/06 02:49:31;;;;;;;;;;;;;;;-2.13;100.00;92260.13;1061815;56;20192;-83
2021/01/06 02:50:33;;;;;;;;;;;;;;;-2.15;100.00;92264.94;1059709;56;20155;-84
2021/01/06 02:51:40;;;;;;;;;;;;;;;-2.09;100.00;92263.53;1064440;55;20197;-83
2021/01/06 02:52:47;;;;;;;;;;;;;;;-2.09;100.00;92260.91;1068732;55;20633;-86
2021/01/06 02:53:47;;;;;;;;;;;;;;;-2.13;100.00;92254.88;1066146;55;20169;-82
2021/01/06 02:54:48;;;;;;;;;;;;;;;-2.12;100.00;92264.25;1064184;55;20647;-85
2021/01/06 02:55:50;;;;;;;;;;;;;;;-2.11;100.00;92258.66;1064123;55;20298;-82
2021/01/06 02:56:52;;;;;;;;;;;;;;;-2.05;100.00;92256.47;1061836;56;20177;-84
2021/01/06 02:57:53;;;;;;;;;;;;;;;-2.06;100.00;92258.34;1057654;56;20163;-84
2021/01/06 02:58:54;;;;;;;;;;;;;;;-2.10;100.00;92254.94;1059889;56;20162;-83
2021/01/06 02:59:55;;;;;;;;;;;;;;;-2.11;100.00;92265.75;1059743;56;20165;-84
2021/01/06 03:00:55;;;;;;;;;;;;;;;-2.05;100.00;92259.09;1059605;56;20166;-83
2021/01/06 03:01:56;;;;;;;;;;;;;;;-2.09;100.00;92258.31;1063995;55;20169;-86
2021/01/06 03:02:57;;;;;;;;;;;;;;;-2.13;100.00;92247.78;1063961;55;20154;-82
2021/01/06 03:03:59;;;;;;;;;;;;;;;-2.11;100.00;92258.66;1059568;56;20170;-83
2021/01/06 03:05:02;;;;;;;;;;;;;;;-2.13;100.00;92253.03;1057831;56;20604;-84
2021/01/06 03:06:06;;;;;;;;;;;;;;;-2.13;99.95;92254.88;1060053;56;20158;-83
2021/01/06 03:07:08;;;;;;;;;;;;;;;-2.13;100.00;92247.03;1059675;56;21202;-84
2021/01/06 03:08:11;;;;;;;;;;;;;;;-2.14;100.00;92253.38;1062054;55;21138;-83
2021/01/06 03:09:32;;;;;;;;;;;;;;;-2.07;100.00;92253.44;1061613;56;20189;-83
2021/01/06 03:10:32;;;;;;;;;;;;;;;-2.15;100.00;92257.09;1062461;56;20174;-84
2021/01/06 03:11:33;;;;;;;;;;;;;;;-2.20;100.00;92252.19;1063952;55;20619;-84
2021/01/06 03:12:34;;;;;;;;;;;;;;;-2.15;100.00;92255.25;1063961;55;20255;-86
2021/01/06 03:13:35;;;;;;;;;;;;;;;-2.13;100.00;92253.03;1063909;55;20631;-83
2021/01/06 03:14:36;;;;;;;;;;;;;;;-2.11;100.00;92250.81;1061758;56;20181;-82
2021/01/06 03:15:37;;;;;;;;;;;;;;;-2.11;100.00;92247.41;1057406;56;20249;-83
2021/01/06 03:16:38;;;;;;;;;;;;;;;-2.13;100.00;92247.78;1059502;56;20182;-84
2021/01/06 03:17:38;;;;;;;;;;;;;;;-2.12;100.00;92248.53;1063929;55;20170;-85
2021/01/06 03:18:39;;;;;;;;;;;;;;;-2.11;100.00;92250.03;1063939;55;20154;-84
2021/01/06 03:19:42;;;;;;;;;;;;;;;-2.13;100.00;92250.41;1061741;56;20757;-84
2021/01/06 03:20:44;;;;;;;;;;;;;;;-2.16;100.00;92245.88;1061748;56;20194;-83
2021/01/06 03:21:47;;;;;;;;;;;;;;;-2.15;100.00;92244.78;1059590;56;20155;-84
2021/01/06 03:22:49;;;;;;;;;;;;;;;-2.16;100.00;92240.63;1061885;55;20218;-83
2021/01/06 03:23:53;;;;;;;;;;;;;;;-2.14;100.00;92245.53;1066451;55;20641;-85
2021/01/06 03:24:56;;;;;;;;;;;;;;;-2.11;100.00;92245.59;1066124;55;20247;-85
2021/01/06 03:25:58;;;;;;;;;;;;;;;-2.05;100.00;92238.91;1065941;55;20238;-85
2021/01/06 03:27:01;;;;;;;;;;;;;;;-2.07;100.00;92243.72;1061952;56;20673;-84
2021/01/06 03:28:01;;;;;;;;;;;;;;;-2.10;100.00;92246.34;1063915;55;20181;-83
2021/01/06 03:29:02;;;;;;;;;;;;;;;-2.03;100.00;92241.16;1063772;55;20247;-84
2021/01/06 03:30:07;;;;;;;;;;;;;;;-1.88;100.00;92240.22;1063945;55;20150;-84
2021/01/06 03:31:15;;;;;;;;;;;;;;;-1.99;99.68;92235.97;1063827;55;20189;-85
2021/01/06 03:32:34;;;;;;;;;;;;;;;-2.05;100.00;92244.13;1061965;56;20259;-83
2021/01/06 03:33:35;;;;;;;;;;;;;;;-2.10;100.00;92241.09;1060333;56;20659;-85
2021/01/06 03:34:41;;;;;;;;;;;;;;;-2.10;100.00;92241.84;1059597;56;20189;-84
2021/01/06 03:35:44;;;;;;;;;;;;;;;-2.05;100.00;92232.91;1062069;56;20188;-86
2021/01/06 03:36:48;;;;;;;;;;;;;;;-2.08;100.00;92239.59;1061721;56;20158;-84
2021/01/06 03:37:52;;;;;;;;;;;;;;;-2.08;100.00;92242.22;1063874;55;20146;-86
2021/01/06 03:38:57;;;;;;;;;;;;;;;-2.03;100.00;92243.78;1065955;55;20624;-84
2021/01/06 03:40:01;;;;;;;;;;;;;;;-2.08;100.00;92239.59;1063963;55;20186;-85
2021/01/06 03:41:05;;;;;;;;;;;;;;;-1.95;100.00;92239.38;1063825;55;20154;-83
2021/01/06 03:42:05;;;;;;;;;;;;;;;-2.03;99.90;92244.53;1063912;55;20586;-83
2021/01/06 03:43:08;;;;;;;;;;;;;;;-1.98;99.56;92242.69;1061788;56;20588;-83
2021/01/06 03:44:10;;;;;;;;;;;;;;;-2.03;99.76;92230.69;1061649;56;20150;-83
2021/01/06 03:45:18;;;;;;;;;;;;;;;-2.08;99.55;92239.59;1064068;55;20180;-84
2021/01/06 03:46:18;;;;;;;;;;;;;;;-2.08;100.00;92236.25;1063632;55;20630;-84
2021/01/06 03:47:25;;;;;;;;;;;;;;;-2.12;100.00;92238.06;1061829;56;20715;-84
2021/01/06 03:48:30;;;;;;;;;;;;;;;-2.09;100.00;92238.09;1061866;56;20333;-82
2021/01/06 03:49:52;;;;;;;;;;;;;;;-2.10;100.00;92236.59;1061868;56;20221;-84
2021/01/06 03:50:55;;;;;;;;;;;;;;;-2.11;100.00;92242.19;1062554;56;20165;-84
2021/01/06 03:52:16;;;;;;;;;;;;;;;-2.11;99.75;92235.09;1063737;55;20165;-84
2021/01/06 03:53:35;;;;;;;;;;;;;;;-2.14;100.00;92230.56;1060036;55;20591;-84
2021/01/06 03:54:44;;;;;;;;;;;;;;;-2.11;99.95;92232.50;1062456;56;20188;-84
2021/01/06 03:56:00;;;;;;;;;;;;;;;-2.10;99.79;92230.62;1062071;56;20184;-84
2021/01/06 03:57:02;;;;;;;;;;;;;;;-2.10;99.74;92236.59;1062259;56;20696;-83
2021/01/06 03:58:03;;;;;;;;;;;;;;;-2.13;99.53;92237.31;1061757;56;20174;-84
2021/01/06 03:59:10;;;;;;;;;;;;;;;-2.12;100.00;92236.19;1063790;55;20165;-83
2021/01/06 04:00:23;;;;;;;;;;;;;;;-2.10;99.72;92234.00;1063820;55;20267;-81
2021/01/06 04:01:42;;;;;;;;;;;;;;;-2.15;99.73;92229.06;1059922;56;20181;-85
2021/01/06 04:02:43;;;;;;;;;;;;;;;-2.14;100.00;92222.72;1063217;55;20226;-85
2021/01/06 04:03:58;;;;;;;;;;;;;;;-2.14;99.87;92224.59;1063956;55;20176;-84
2021/01/06 04:05:02;;;;;;;;;;;;;;;-2.15;100.00;92229.06;1062204;56;20181;-83
2021/01/06 04:06:04;;;;;;;;;;;;;;;-2.15;99.56;92225.69;1061753;56;20184;-84
2021/01/06 04:07:06;;;;;;;;;;;;;;;-2.11;100.00;92222.03;1061823;56;20584;-83
2021/01/06 04:08:08;;;;;;;;;;;;;;;-2.09;99.42;92230.25;1061823;56;20166;-85
2021/01/06 04:09:16;;;;;;;;;;;;;;;-2.06;99.80;92229.56;1059656;56;20289;-84
2021/01/06 04:10:25;;;;;;;;;;;;;;;-2.08;99.27;92228.38;1060058;56;20155;-86
2021/01/06 04:11:27;;;;;;;;;;;;;;;-2.08;98.96;92228.38;1064030;55;20169;-83
2021/01/06 04:12:28;;;;;;;;;;;;;;;-2.09;99.66;92230.25;1066337;55;20161;-85
2021/01/06 04:13:29;;;;;;;;;;;;;;;-2.07;99.36;92230.62;1063897;55;20204;-84
2021/01/06 04:14:30;;;;;;;;;;;;;;;-2.04;99.05;92226.56;1063927;55;20254;-82
2021/01/06 04:15:30;;;;;;;;;;;;;;;-2.08;98.92;92231.75;1065901;55;20238;-84
2021/01/06 04:16:31;;;;;;;;;;;;;;;-2.09;99.24;92230.25;1063801;55;20154;-83
2021/01/06 04:17:34;;;;;;;;;;;;;;;-2.10;99.47;92228.00;1059556;56;20197;-85
2021/01/06 04:18:34;;;;;;;;;;;;;;;-2.08;99.08;92223.91;1059636;56;20604;-84
2021/01/06 04:19:35;;;;;;;;;;;;;;;-2.06;99.01;92231.41;1061628;56;20169;-83
2021/01/06 04:20:36;;;;;;;;;;;;;;;-2.03;98.74;92231.44;1059442;56;20159;-82
2021/01/06 04:21:37;;;;;;;;;;;;;;;-2.06;98.61;92226.19;1063808;55;21128;-83
2021/01/06 04:22:45;;;;;;;;;;;;;;;-2.06;98.37;92232.16;1063911;55;20188;-83
2021/01/06 04:23:45;;;;;;;;;;;;;;;-2.06;98.62;92226.19;1064061;55;20192;-83
2021/01/06 04:24:46;;;;;;;;;;;;;;;-2.01;98.70;92232.97;1065904;55;20181;-85
2021/01/06 04:25:47;;;;;;;;;;;;;;;-2.04;98.56;92231.81;1066285;55;20149;-85
2021/01/06 04:26:48;;;;;;;;;;;;;;;-2.03;98.73;92230.69;1065914;55;20177;-84
2021/01/06 04:27:49;;;;;;;;;;;;;;;-2.04;98.81;92232.56;1065959;55;20278;-85
2021/01/06 04:28:50;;;;;;;;;;;;;;;-2.07;98.99;92229.88;1066006;55;20232;-84
2021/01/06 04:29:50;;;;;;;;;;;;;;;-2.07;98.96;92228.03;1063695;55;20165;-83
2021/01/06 04:30:53;;;;;;;;;;;;;;;-2.06;99.14;92226.94;1061594;56;20154;-84
2021/01/06 04:31:54;;;;;;;;;;;;;;;-2.07;99.04;92227.28;1063773;55;20158;-83
2021/01/06 04:32:55;;;;;;;;;;;;;;;-2.07;99.23;92224.66;1063641;55;20150;-85
2021/01/06 04:33:56;;;;;;;;;;;;;;;-2.12;99.14;92227.59;1063679;55;20165;-83
2021/01/06 04:34:56;;;;;;;;;;;;;;;-2.11;99.21;92224.63;1063557;55;20158;-84
2021/01/06 04:35:58;;;;;;;;;;;;;;;-2.07;99.26;92225.41;1061603;56;20162;-84
2021/01/06 04:36:58;;;;;;;;;;;;;;;-2.04;99.11;92223.94;1061697;56;20173;-84
2021/01/06 04:37:59;;;;;;;;;;;;;;;-2.09;98.95;92230.25;1063804;55;20150;-84
2021/01/06 04:39:03;;;;;;;;;;;;;;;-2.06;98.95;92223.56;1063700;55;20178;-84
2021/01/06 04:40:04;;;;;;;;;;;;;;;-2.08;99.02;92234.37;1063825;55;20630;-85
2021/01/06 04:41:25;;;;;;;;;;;;;;;-2.01;98.86;92219.87;1063643;55;20185;-85
2021/01/06 04:42:26;;;;;;;;;;;;;;;-2.04;98.59;92229.19;1062176;56;20185;-83
2021/01/06 04:43:27;;;;;;;;;;;;;;;-2.07;98.89;92227.28;1061654;56;21119;-85
2021/01/06 04:44:45;;;;;;;;;;;;;;;-2.08;98.71;92228.38;1063624;55;20170;-85
2021/01/06 04:45:52;;;;;;;;;;;;;;;-1.99;99.11;92226.25;1063581;55;20162;-83
2021/01/06 04:47:04;;;;;;;;;;;;;;;-2.04;98.76;92227.31;1061682;56;20185;-81
2021/01/06 04:48:07;;;;;;;;;;;;;;;-2.05;99.34;92227.69;1061510;56;20555;-84
2021/01/06 04:49:08;;;;;;;;;;;;;;;-2.04;99.07;92226.56;1059628;56;20628;-84
2021/01/06 04:50:27;;;;;;;;;;;;;;;-2.06;98.70;92229.56;1063784;55;20169;-83
2021/01/06 04:51:45;;;;;;;;;;;;;;;-2.07;99.16;92225.41;1063721;55;20189;-86
2021/01/06 04:53:04;;;;;;;;;;;;;;;-2.10;98.90;92226.13;1062008;56;20582;-82
2021/01/06 04:54:24;;;;;;;;;;;;;;;-2.00;99.16;92219.50;1064117;55;20162;-85
2021/01/06 04:55:33;;;;;;;;;;;;;;;-2.03;98.59;92222.81;1062295;56;20283;-84
2021/01/06 04:56:40;;;;;;;;;;;;;;;-2.08;98.77;92229.13;1059707;56;22308;-84
2021/01/06 04:57:52;;;;;;;;;;;;;;;-2.05;99.17;92225.81;1059708;56;20620;-84
2021/01/06 04:59:12;;;;;;;;;;;;;;;-2.13;99.04;92220.84;1062893;56;20287;-84
2021/01/06 05:00:36;;;;;;;;;;;;;;;-2.12;99.44;92217.13;1059512;55;20158;-85
2021/01/06 05:01:50;;;;;;;;;;;;;;;-2.12;99.86;92219.75;1061239;55;20173;-84
2021/01/06 05:03:09;;;;;;;;;;;;;;;-2.16;99.52;92219.69;1062881;56;20575;-85
2021/01/06 05:04:18;;;;;;;;;;;;;;;-2.11;99.83;92218.63;1060894;56;20167;-84
2021/01/06 05:05:30;;;;;;;;;;;;;;;-2.14;99.08;92219.34;1060822;56;20258;-84
2021/01/06 05:06:51;;;;;;;;;;;;;;;-2.12;99.53;92220.50;1065001;55;21170;-84
2021/01/06 05:07:55;;;;;;;;;;;;;;;-2.15;99.44;92223.06;1062346;56;20595;-85
2021/01/06 05:08:58;;;;;;;;;;;;;;;-2.09;99.82;92224.28;1060494;56;20256;-84
2021/01/06 05:10:19;;;;;;;;;;;;;;;-2.08;98.97;92213.44;1060510;56;20192;-84
2021/01/06 05:11:29;;;;;;;;;;;;;;;-2.08;99.30;92223.16;1060930;56;20158;-85
2021/01/06 05:12:36;;;;;;;;;;;;;;;-2.09;99.64;92222.41;1058972;56;20174;-85
2021/01/06 05:13:54;;;;;;;;;;;;;;;-2.11;99.39;92223.84;1060529;56;20751;-84
2021/01/06 05:15:01;;;;;;;;;;;;;;;-2.10;100.00;92226.13;1065073;55;20181;-83
2021/01/06 05:16:10;;;;;;;;;;;;;;;-2.08;99.65;92221.28;1062083;56;20177;-84
2021/01/06 05:17:12;;;;;;;;;;;;;;;-2.10;99.37;92228.00;1063120;55;20193;-83
2021/01/06 05:18:12;;;;;;;;;;;;;;;-2.05;99.69;92219.81;1062324;56;20162;-84
2021/01/06 05:19:28;;;;;;;;;;;;;;;-2.06;99.56;92226.94;1058035;56;20256;-85
2021/01/06 05:20:28;;;;;;;;;;;;;;;-2.03;99.31;92220.97;1061299;56;20328;-84
2021/01/06 05:21:29;;;;;;;;;;;;;;;-2.05;98.86;92222.44;1060292;56;20308;-84
2021/01/06 05:22:30;;;;;;;;;;;;;;;-2.05;99.06;92227.69;1060172;56;20177;-85
2021/01/06 05:23:30;;;;;;;;;;;;;;;-2.06;99.23;92226.19;1062406;56;20162;-84
2021/01/06 05:24:38;;;;;;;;;;;;;;;-2.06;99.26;92228.81;1060234;56;20224;-87
2021/01/06 05:25:39;;;;;;;;;;;;;;;-2.12;99.23;92230.97;1060426;56;20565;-85
2021/01/06 05:26:39;;;;;;;;;;;;;;;-2.07;99.20;92230.62;1060113;56;20312;-82
2021/01/06 05:28:00;;;;;;;;;;;;;;;-2.09;99.52;92229.50;1066396;55;20185;-84
2021/01/06 05:29:02;;;;;;;;;;;;;;;-2.09;99.43;92229.50;1066949;55;20165;-86
2021/01/06 05:30:16;;;;;;;;;;;;;;;-2.10;99.31;92239.22;1064512;55;20264;-85